»·PEaware :: DAL360 KGJT-KASE

DAL360 :: KGJT-KASE

FLIGHT INFORMATION

Flight Status: Arrived
Operator:
Delta Air Lines
More flights by this operator :: More flights under this callsign
Pilot: Sergei F. (8485)
Aircraft: BOEING 737-300
(B733)
More flights by this aircraft type
Origin: KGJT Walker
United States
Destination: KASE Aspen-Pitkin Co/Sardy
United States
More flights between these airports :: More routes between these airports
Route: GRAND1 DBL
File this flight plan on PilotEdge
Remarks:
Altitude:
(Current/Filed)
19,000ft
Speed:
(Current/Filed)
300kts
Departed: 06-Oct-17 09:16 PM
Arrived: 06-Oct-17 09:43 PM
Distance/Time
Traveled:
78nm/0:27
Distance/Time
To Go:
Arrived

Flight Plot

Page will automatically refresh every two minutes.

Flight plan parsing failed; only flown route is shown


Map Options




Map Legend


Flown Route
Filed Route
Departure Airport
Arrival Airport
Navaid (VOR, NDB)
Fix

Horizontal Profiles

Position Reports

Time Latitude Longitude Heading Altitude Ground
Speed
06-Oct-17 20:50 39.123293 -108.528946 213 4834ft 0kts
06-Oct-17 20:51 39.123293 -108.528946 213 4834ft 0kts
06-Oct-17 20:52 39.123293 -108.528946 213 4834ft 0kts
06-Oct-17 20:53 39.123293 -108.528946 213 4834ft 0kts
06-Oct-17 20:54 39.123293 -108.528946 213 4834ft 0kts
06-Oct-17 20:55 39.123293 -108.528946 213 4834ft 0kts
06-Oct-17 20:56 39.123293 -108.528946 213 4834ft 0kts
06-Oct-17 20:57 39.123293 -108.528946 213 4834ft 0kts
06-Oct-17 20:58 39.123293 -108.528946 213 4834ft 0kts
06-Oct-17 20:59 39.123293 -108.528946 213 4834ft 0kts
06-Oct-17 21:00 39.123293 -108.528946 213 4834ft 0kts
06-Oct-17 21:01 39.123293 -108.528946 213 4834ft 0kts
06-Oct-17 21:02 39.123293 -108.528946 213 4834ft 0kts
06-Oct-17 21:03 39.123574 -108.528701 213 4836ft 0kts
06-Oct-17 21:04 39.123895 -108.528374 122 4839ft 0kts
06-Oct-17 21:05 39.123895 -108.528374 122 4839ft 0kts
06-Oct-17 21:06 39.123895 -108.528374 122 4839ft 0kts
06-Oct-17 21:07 39.123895 -108.528374 122 4839ft 0kts
06-Oct-17 21:08 39.123895 -108.528374 122 4839ft 0kts
06-Oct-17 21:09 39.123543 -108.527733 125 4840ft 6kts
06-Oct-17 21:10 39.122967 -108.526000 48 4843ft 0kts
06-Oct-17 21:11 39.122967 -108.526000 48 4843ft 0kts
06-Oct-17 21:12 39.123041 -108.525901 43 4844ft 2kts
06-Oct-17 21:13 39.124836 -108.528314 305 4843ft 17kts
06-Oct-17 21:14 39.127512 -108.533183 305 4834ft 16kts
06-Oct-17 21:15 39.128402 -108.534801 305 4834ft 18kts
06-Oct-17 21:16 39.131276 -108.540031 305 4813ft 19kts
06-Oct-17 21:17 39.133854 -108.544658 320 4801ft 4kts
06-Oct-17 21:18 39.134017 -108.544757 343 4801ft 0kts
06-Oct-17 21:19 39.134741 -108.544026 104 4802ft 7kts
06-Oct-17 21:20 39.130174 -108.535561 124 4832ft 133kts
06-Oct-17 21:21 39.092749 -108.501260 159 7646ft 188kts
06-Oct-17 21:22 39.041071 -108.476657 159 10307ft 227kts
06-Oct-17 21:23 38.980297 -108.446251 159 13476ft 246kts
06-Oct-17 21:24 38.948419 -108.381474 57 14010ft 245kts
06-Oct-17 21:25 38.978122 -108.302003 63 16049ft 280kts
06-Oct-17 21:26 39.011014 -108.205992 62 18666ft 309kts
06-Oct-17 21:27 39.048804 -108.093273 62 19188ft 363kts
06-Oct-17 21:28 39.088555 -107.973852 62 19223ft 365kts
06-Oct-17 21:29 39.128144 -107.854542 62 19218ft 364kts
06-Oct-17 21:30 39.167628 -107.735065 62 19208ft 364kts
06-Oct-17 21:31 39.207009 -107.615396 62 18767ft 365kts
06-Oct-17 21:32 39.245455 -107.498028 63 17048ft 354kts
06-Oct-17 21:33 39.279433 -107.393816 62 16977ft 284kts
06-Oct-17 21:34 39.307268 -107.308126 63 16959ft 283kts
06-Oct-17 21:35 39.350778 -107.237905 39 15753ft 271kts
06-Oct-17 21:36 39.403993 -107.173359 39 14947ft 261kts
06-Oct-17 21:37 39.456376 -107.110091 39 14978ft 265kts
06-Oct-17 21:38 39.506676 -107.049908 39 13955ft 234kts
06-Oct-17 21:39 39.550673 -106.996053 45 13980ft 224kts
06-Oct-17 21:40 39.522593 -106.946800 188 13997ft 227kts
06-Oct-17 21:41 39.460974 -106.952168 189 13998ft 209kts
06-Oct-17 21:42 39.406977 -106.954853 177 12918ft 193kts
06-Oct-17 21:43 39.357399 -106.933707 162 12240ft 186kts
06-Oct-17 21:44 39.313213 -106.911767 165 11038ft 170kts
06-Oct-17 21:45 39.271641 -106.891965 165 9289ft 155kts
06-Oct-17 21:46 39.233562 -106.873504 165 7713ft 131kts
06-Oct-17 21:47 39.220533 -106.867335 141 7763ft 7kts
06-Oct-17 21:48 39.219917 -106.865898 159 7772ft 1kts
06-Oct-17 21:49 39.219378 -106.865634 159 7775ft 2kts
06-Oct-17 21:50 39.219261 -106.865578 159 7776ft 0kts
06-Oct-17 21:51 39.218012 -106.864776 112 7786ft 8kts
06-Oct-17 21:52 39.218396 -106.864535 275 7784ft 0kts

Navigation Log

Ident Type
Flight plan parsing failed, navigation log unavailable